01:51
Airports
History
Links
Donate
Help keep this website running!
PayPal
Bitcoin
This page is community maintained. The information is intended for PC simulator navigation or reference.
Always use approved charts for navigation.
SDKB
Casa Branca
Casa Branca (SDKB)
Casa Branca, São Paulo, Brazil (13700)
4
Lat/Lng:21° 47' 17" S / 47° 3' 20" W
-21.788056 / -47.055556
Elevation:2346'ft / 715mMSL
ID / ICAO:SDKB
Runways:1
Longest:11-29
Dirt 692m / 2,270ft
Nearby Weather01:00 GMT 2017-10-19
Nearby weather at SBYS, CAMPO FONTENELLE located 22.5 nautical miles from SDKB
Altimeter: 30.03
Visibility: 6.2 statute miles
Wind: 3 knots (from 080°)
Temp: 23°c / 73°f
Humidity: 49.9%

METAR: SBYS 190100Z 08003KT CAVOK 23/12 Q1017

(Powered by phpweather)
Runway 11 / 29
Dimensions:692 x 20.1m 2270' x 66'ft
Surface:Dirt
Runway 11 [A]Runway 29 [B]
Heading:089°TH 269°TH
Lat:
Lng:
21° 47' 17.13"S
47° 3' 32.21"W
21° 47' 16.87"S
47° 3' 7.79"W
User Notes and Comments
21° 47' 17" S / 47° 3' 20" W
Distance To
Airport ID:
Nearby Airports
4 Fazenda Campo Vitoria 7.1 NM
SDVA ESE 115°
(U) Aeroclube de Sao Jose do Rio Pardo 12.6 NM
SIPA NE 38°
(U) COMANDANTE VITTORIO BONAMI 17.8 NM
SJCA N
4 Tambau 17.8 NM
SSET WNW 290°
(C) Mococa 20.8 NM
SDKK N
(U) Sao Joao da Boa Vista 21.0 NM
SDJV SE 138°
(C) CAMPO FONTENELLE 22.5 NM
SBYS ( WX ) SW 232°
VFR Chart
Flight Planning at SkyVector.com